createdAt,value
2023-02-15T00:00:18.237Z,3.06
2023-02-15T00:02:46.643Z,3.04
2023-02-15T00:05:15.119Z,3.05
2023-02-15T00:07:43.684Z,3.08
2023-02-15T00:10:13.067Z,3.05
2023-02-15T00:12:41.546Z,3.04
2023-02-15T00:15:10.281Z,2.99
2023-02-15T00:17:38.979Z,3.00
2023-02-15T00:20:08.150Z,3.00
2023-02-15T00:22:36.584Z,2.99
2023-02-15T00:25:05.160Z,2.96
2023-02-15T00:27:33.600Z,2.96
2023-02-15T00:30:02.079Z,2.94
2023-02-15T00:32:30.592Z,2.90
2023-02-15T00:34:59.033Z,2.90
2023-02-15T00:37:27.521Z,2.92
2023-02-15T00:39:56.074Z,2.87
2023-02-15T00:42:24.491Z,2.87
2023-02-15T00:44:52.989Z,2.80
2023-02-15T00:47:21.525Z,2.78
2023-02-15T00:49:50.008Z,2.79
2023-02-15T00:52:18.466Z,2.79
2023-02-15T00:54:46.906Z,2.79
2023-02-15T00:57:15.378Z,2.78
2023-02-15T00:59:43.835Z,2.76
2023-02-15T01:02:12.533Z,2.72
2023-02-15T01:04:41.027Z,2.68
2023-02-15T01:07:10.183Z,2.63
2023-02-15T01:09:38.661Z,2.57
2023-02-15T01:12:07.273Z,2.55
2023-02-15T01:14:35.765Z,2.57
2023-02-15T01:17:04.203Z,2.63
2023-02-15T01:19:32.656Z,2.67
2023-02-15T01:22:01.099Z,2.66
2023-02-15T01:24:29.618Z,2.65
2023-02-15T01:26:58.081Z,2.68
2023-02-15T01:29:26.526Z,2.64
2023-02-15T01:31:55.058Z,2.62
2023-02-15T01:34:24.208Z,2.57
2023-02-15T01:36:52.682Z,2.51
2023-02-15T01:39:21.141Z,2.46
2023-02-15T01:41:49.715Z,2.41
2023-02-15T01:44:50.244Z,2.35
2023-02-15T01:47:43.541Z,2.30
2023-02-15T01:50:29.526Z,2.28
2023-02-15T01:53:19.050Z,2.27
2023-02-15T01:55:55.337Z,2.27
2023-02-15T01:58:25.155Z,2.24
2023-02-15T02:00:53.662Z,2.23
2023-02-15T02:03:37.410Z,2.17
2023-02-15T02:06:06.200Z,2.21
2023-02-15T02:08:35.064Z,2.20
2023-02-15T02:11:03.583Z,2.24
2023-02-15T02:13:32.065Z,2.29
2023-02-15T02:16:13.986Z,2.31
2023-02-15T02:19:35.183Z,2.31
2023-02-15T02:22:46.762Z,2.24
2023-02-15T02:25:32.802Z,2.20
2023-02-15T02:28:31.632Z,2.20
2023-02-15T02:31:17.481Z,2.21
2023-02-15T02:34:27.837Z,2.20
2023-02-15T02:37:38.547Z,2.20
2023-02-15T02:40:25.324Z,2.27
2023-02-15T02:43:04.231Z,2.30
2023-02-15T02:45:46.141Z,2.33
2023-02-15T02:48:32.168Z,2.33
2023-02-15T02:51:00.474Z,2.30
2023-02-15T02:53:32.622Z,2.32
2023-02-15T02:56:04.073Z,2.31
2023-02-15T02:58:42.326Z,2.30
2023-02-15T03:01:19.657Z,2.24
2023-02-15T03:03:53.199Z,2.14
2023-02-15T03:06:33.424Z,2.06
2023-02-15T03:09:16.360Z,1.99
2023-02-15T03:11:46.863Z,1.94
2023-02-15T03:14:18.330Z,1.93
2023-02-15T03:16:49.795Z,1.89
2023-02-15T03:19:32.171Z,1.87
2023-02-15T03:22:11.198Z,1.88
2023-02-15T03:24:53.409Z,1.87
2023-02-15T03:27:27.303Z,1.80
2023-02-15T03:30:02.017Z,1.85
2023-02-15T03:32:33.412Z,1.86
2023-02-15T03:35:02.247Z,1.86
2023-02-15T03:37:30.759Z,1.83
2023-02-15T03:40:26.157Z,1.78
2023-02-15T03:43:05.802Z,1.80
2023-02-15T03:45:36.424Z,1.77
2023-02-15T03:48:05.522Z,1.78
2023-02-15T03:50:53.145Z,1.80
2023-02-15T03:53:24.540Z,1.78
2023-02-15T03:55:56.962Z,1.78
2023-02-15T03:58:42.841Z,1.82
2023-02-15T04:01:59.365Z,1.82
2023-02-15T04:04:41.602Z,1.84
2023-02-15T04:07:11.325Z,1.88
2023-02-15T04:09:57.057Z,1.89
2023-02-15T04:12:25.632Z,1.91
2023-02-15T04:15:11.431Z,1.92
2023-02-15T04:17:40.234Z,1.93
2023-02-15T04:20:27.624Z,1.87
2023-02-15T04:23:13.360Z,1.82
2023-02-15T04:25:41.946Z,1.76
2023-02-15T04:28:10.440Z,1.80
2023-02-15T04:30:38.906Z,1.80
2023-02-15T04:33:07.345Z,1.83
2023-02-15T04:35:35.822Z,1.82
2023-02-15T04:38:04.453Z,1.81
2023-02-15T04:40:33.554Z,1.80
2023-02-15T04:43:02.133Z,1.76
2023-02-15T04:45:30.738Z,1.69
2023-02-15T04:47:59.247Z,1.63
2023-02-15T04:50:27.683Z,1.59
2023-02-15T04:52:56.335Z,1.53
2023-02-15T04:55:24.883Z,1.52
2023-02-15T04:57:53.339Z,1.47
2023-02-15T05:00:21.664Z,1.43
2023-02-15T05:02:50.118Z,1.45
2023-02-15T05:05:18.678Z,1.46
2023-02-15T05:07:47.428Z,1.48
2023-02-15T05:10:15.971Z,1.48
2023-02-15T05:12:44.403Z,1.47
2023-02-15T05:15:12.849Z,1.42
2023-02-15T05:17:41.506Z,1.40
2023-02-15T05:20:10.352Z,1.37
2023-02-15T05:22:38.794Z,1.35
2023-02-15T05:25:25.128Z,1.39
2023-02-15T05:28:25.430Z,1.40
2023-02-15T05:31:18.392Z,1.42
2023-02-15T05:33:47.508Z,1.43
2023-02-15T05:36:16.196Z,1.40
2023-02-15T05:38:44.747Z,1.38
2023-02-15T05:41:13.722Z,1.34
2023-02-15T05:43:42.557Z,1.32
2023-02-15T05:46:11.366Z,1.38
2023-02-15T05:48:39.911Z,1.45
2023-02-15T05:51:15.045Z,1.50
2023-02-15T05:53:43.891Z,1.51
2023-02-15T05:56:13.523Z,1.47
2023-02-15T05:58:43.716Z,1.45
2023-02-15T06:01:22.979Z,1.44
2023-02-15T06:03:51.809Z,1.42
2023-02-15T06:06:20.774Z,1.38
2023-02-15T06:08:48.950Z,1.37
2023-02-15T06:11:17.626Z,1.34
2023-02-15T06:13:46.025Z,1.35
2023-02-15T06:16:14.505Z,1.33
2023-02-15T06:18:42.983Z,1.32
2023-02-15T06:21:11.429Z,1.30
2023-02-15T06:23:39.964Z,1.31
2023-02-15T06:26:08.402Z,1.32
2023-02-15T06:28:38.268Z,1.35
2023-02-15T06:31:06.970Z,1.40
2023-02-15T06:33:35.852Z,1.42
2023-02-15T06:36:04.956Z,1.50
2023-02-15T06:38:33.770Z,1.56
2023-02-15T06:41:02.225Z,1.58
2023-02-15T06:43:30.770Z,1.59
2023-02-15T06:46:00.603Z,1.63
2023-02-15T06:48:29.385Z,1.62
2023-02-15T06:50:57.815Z,1.59
2023-02-15T06:53:26.308Z,1.60
2023-02-15T06:55:54.758Z,1.59
2023-02-15T06:58:23.221Z,1.63
2023-02-15T07:00:51.671Z,1.65
2023-02-15T07:03:20.129Z,1.64
2023-02-15T07:05:49.788Z,1.65
2023-02-15T07:08:18.502Z,1.65
2023-02-15T07:10:47.091Z,1.65
2023-02-15T07:13:14.602Z,1.73
2023-02-15T07:15:43.147Z,1.79
2023-02-15T07:18:12.135Z,1.82
2023-02-15T07:20:42.639Z,1.84
2023-02-15T07:23:11.440Z,1.90
2023-02-15T07:25:39.962Z,1.90
2023-02-15T07:28:10.428Z,1.95
2023-02-15T07:30:38.913Z,1.99
2023-02-15T07:33:25.464Z,2.01
2023-02-15T07:36:00.158Z,2.03
2023-02-15T07:38:31.799Z,2.08
2023-02-15T07:41:05.403Z,2.17
2023-02-15T07:43:39.767Z,2.22
2023-02-15T07:46:12.794Z,2.24
2023-02-15T07:48:42.441Z,2.28
2023-02-15T07:51:12.751Z,2.34
2023-02-15T07:53:41.743Z,2.37
2023-02-15T07:56:13.500Z,2.36
2023-02-15T07:58:54.999Z,2.38
2023-02-15T08:01:27.401Z,2.41
2023-02-15T08:03:56.546Z,2.45
2023-02-15T08:06:27.406Z,2.46
2023-02-15T08:08:56.220Z,2.51
2023-02-15T08:11:37.495Z,2.56
2023-02-15T08:14:18.681Z,2.63
2023-02-15T08:16:50.600Z,2.71
2023-02-15T08:19:23.946Z,2.74
2023-02-15T08:22:07.307Z,2.80
2023-02-15T08:24:38.800Z,2.87
2023-02-15T08:27:10.535Z,2.92
2023-02-15T08:29:40.221Z,2.93
2023-02-15T08:32:12.981Z,2.97
2023-02-15T08:34:43.614Z,3.03
2023-02-15T08:37:12.134Z,3.06
2023-02-15T08:39:40.620Z,3.13
2023-02-15T08:42:09.336Z,3.17
2023-02-15T08:44:37.790Z,3.23
2023-02-15T08:47:06.275Z,3.29
2023-02-15T08:49:35.079Z,3.33
2023-02-15T08:52:03.596Z,3.39
2023-02-15T08:54:32.075Z,3.44
2023-02-15T08:57:01.049Z,3.47
2023-02-15T08:59:29.549Z,3.52
2023-02-15T09:01:58.211Z,3.59
2023-02-15T09:04:26.727Z,3.66
2023-02-15T09:06:56.114Z,3.71
2023-02-15T09:09:24.762Z,3.76
2023-02-15T09:11:58.879Z,3.79
2023-02-15T09:14:28.842Z,3.85
2023-02-15T09:16:57.555Z,3.90
2023-02-15T09:19:26.571Z,3.94
2023-02-15T09:21:55.026Z,3.99
2023-02-15T09:24:23.595Z,4.05
2023-02-15T09:26:52.053Z,4.10
2023-02-15T09:29:21.065Z,4.17
2023-02-15T09:31:52.104Z,4.27
2023-02-15T09:34:23.026Z,4.33
2023-02-15T09:36:52.142Z,4.41
2023-02-15T09:39:26.790Z,4.48
2023-02-15T09:41:55.497Z,4.54
2023-02-15T09:44:50.919Z,4.61
2023-02-15T09:47:23.998Z,4.67
2023-02-15T09:50:10.040Z,4.74
2023-02-15T09:53:07.763Z,4.80
2023-02-15T09:55:36.194Z,4.86
2023-02-15T09:58:38.516Z,4.92
2023-02-15T10:01:52.172Z,4.98
2023-02-15T10:04:32.197Z,5.07
2023-02-15T10:07:03.725Z,5.12
2023-02-15T10:09:43.675Z,5.18
2023-02-15T10:12:56.612Z,5.24
2023-02-15T10:15:25.187Z,5.31
2023-02-15T10:18:20.970Z,5.36
2023-02-15T10:21:29.491Z,5.42
2023-02-15T10:24:28.946Z,5.49
2023-02-15T10:27:15.501Z,5.53
2023-02-15T10:30:10.029Z,5.58
2023-02-15T10:33:00.292Z,5.65
2023-02-15T10:35:46.441Z,5.72
2023-02-15T10:38:43.387Z,5.76
2023-02-15T10:41:20.444Z,5.80
2023-02-15T10:44:08.848Z,5.84
2023-02-15T10:47:06.214Z,5.91
2023-02-15T10:49:51.796Z,5.97
2023-02-15T10:52:44.697Z,6.02
2023-02-15T10:55:58.886Z,6.10
2023-02-15T10:59:10.064Z,6.18
2023-02-15T11:01:57.620Z,6.25
2023-02-15T11:04:55.453Z,6.32
2023-02-15T11:07:28.404Z,6.40
2023-02-15T11:10:08.402Z,6.49
2023-02-15T11:12:36.966Z,6.61
2023-02-15T11:15:35.444Z,6.69
2023-02-15T11:18:21.791Z,6.73
2023-02-15T11:21:11.469Z,6.78
2023-02-15T11:23:46.528Z,6.88
2023-02-15T11:26:42.315Z,6.95
2023-02-15T11:29:29.268Z,7.02
2023-02-15T11:32:35.083Z,7.10
2023-02-15T11:35:12.640Z,7.20
2023-02-15T11:37:51.141Z,7.22
2023-02-15T11:40:30.576Z,7.29
2023-02-15T11:43:07.131Z,7.33
2023-02-15T11:45:37.243Z,7.38
2023-02-15T11:48:13.607Z,7.40
2023-02-15T11:50:43.824Z,7.42
2023-02-15T11:53:25.857Z,7.43
2023-02-15T11:55:54.537Z,7.51
2023-02-15T11:58:50.308Z,7.55
2023-02-15T12:01:37.900Z,7.59
2023-02-15T12:04:32.855Z,7.62
2023-02-15T12:07:23.669Z,7.67
2023-02-15T12:10:34.701Z,7.75
2023-02-15T12:13:17.334Z,7.83
2023-02-15T12:15:53.020Z,7.86
2023-02-15T12:18:46.332Z,8.01
2023-02-15T12:21:36.665Z,8.05
2023-02-15T12:24:34.425Z,8.07
2023-02-15T12:27:13.339Z,8.13
2023-02-15T12:29:48.725Z,8.14
2023-02-15T12:32:35.431Z,8.19
2023-02-15T12:35:14.946Z,8.20
2023-02-15T12:37:57.139Z,8.28
2023-02-15T12:40:34.294Z,8.36
2023-02-15T12:43:09.487Z,8.38
2023-02-15T12:45:40.299Z,8.41
2023-02-15T12:48:23.710Z,8.45
2023-02-15T12:50:56.411Z,8.50
2023-02-15T12:53:37.343Z,8.53
2023-02-15T12:56:11.736Z,8.57
2023-02-15T12:58:42.243Z,8.61
2023-02-15T13:01:25.826Z,8.64
2023-02-15T13:03:58.574Z,8.64
2023-02-15T13:06:28.312Z,8.68
2023-02-15T13:09:00.846Z,8.72
2023-02-15T13:11:35.284Z,8.80
2023-02-15T13:14:29.508Z,8.85
2023-02-15T13:17:02.480Z,8.89
2023-02-15T13:19:44.683Z,9.00
2023-02-15T13:22:22.550Z,9.08
2023-02-15T13:25:06.403Z,9.10
2023-02-15T13:27:41.511Z,9.12
2023-02-15T13:30:27.965Z,9.21
2023-02-15T13:33:02.761Z,9.23
2023-02-15T13:36:08.683Z,9.31
2023-02-15T13:38:49.304Z,9.37
2023-02-15T13:41:36.888Z,9.36
2023-02-15T13:44:58.050Z,9.40
2023-02-15T13:47:50.259Z,9.40
2023-02-15T13:50:42.121Z,9.41
2023-02-15T13:53:39.154Z,9.43
2023-02-15T13:56:19.047Z,9.44
2023-02-15T13:59:19.769Z,9.58
2023-02-15T14:02:28.484Z,9.61
2023-02-15T14:05:37.066Z,9.60
2023-02-15T14:08:44.017Z,9.59
2023-02-15T14:11:43.943Z,9.58
2023-02-15T14:14:42.812Z,9.65
2023-02-15T14:17:38.573Z,9.68
2023-02-15T14:20:26.245Z,9.69
2023-02-15T14:23:31.139Z,9.72
2023-02-15T14:26:04.247Z,9.72
2023-02-15T14:29:03.793Z,9.78
2023-02-15T14:31:45.275Z,9.75
2023-02-15T14:34:34.599Z,9.81
2023-02-15T14:37:04.030Z,9.83
2023-02-15T14:40:04.442Z,9.84
2023-02-15T14:43:06.504Z,9.83
2023-02-15T14:45:56.547Z,9.85
2023-02-15T14:48:34.342Z,9.89
2023-02-15T14:51:02.933Z,9.88
2023-02-15T14:53:34.127Z,9.90
2023-02-15T14:56:03.340Z,9.88
2023-02-15T14:58:32.011Z,9.88
2023-02-15T15:01:08.921Z,9.91
2023-02-15T15:03:37.716Z,9.92
2023-02-15T15:06:07.856Z,9.88
2023-02-15T15:08:41.075Z,9.88
2023-02-15T15:11:42.974Z,9.94
2023-02-15T15:14:35.675Z,9.93
2023-02-15T15:17:06.453Z,9.91
2023-02-15T15:19:53.713Z,9.86
2023-02-15T15:22:27.463Z,9.81
2023-02-15T15:25:02.382Z,9.78
2023-02-15T15:27:55.347Z,9.72
2023-02-15T15:30:23.535Z,9.68
2023-02-15T15:32:57.816Z,9.63
2023-02-15T15:35:54.495Z,9.58
2023-02-15T15:38:47.069Z,9.54
2023-02-15T15:42:00.308Z,9.50
2023-02-15T15:45:13.961Z,9.46
2023-02-15T15:48:07.414Z,9.42
2023-02-15T15:50:36.584Z,9.37
2023-02-15T15:53:05.816Z,9.33
2023-02-15T15:55:36.181Z,9.29
2023-02-15T15:58:09.515Z,9.26
2023-02-15T16:00:45.505Z,9.20
2023-02-15T16:03:37.142Z,9.14
2023-02-15T16:06:05.729Z,9.09
2023-02-15T16:08:41.540Z,9.03
2023-02-15T16:11:29.456Z,8.96
2023-02-15T16:14:07.042Z,8.89
2023-02-15T16:16:36.191Z,8.82
2023-02-15T16:19:06.693Z,8.75
2023-02-15T16:21:38.408Z,8.68
2023-02-15T16:24:15.797Z,8.63
2023-02-15T16:27:16.089Z,8.55
2023-02-15T16:29:44.542Z,8.46
2023-02-15T16:32:20.669Z,8.36
2023-02-15T16:35:02.950Z,8.27
2023-02-15T16:37:37.402Z,8.17
2023-02-15T16:40:06.547Z,8.09
2023-02-15T16:42:35.777Z,8.04
2023-02-15T16:45:10.510Z,7.97
2023-02-15T16:47:45.382Z,7.91
2023-02-15T16:50:26.897Z,7.84
2023-02-15T16:52:55.504Z,7.79
2023-02-15T16:55:27.339Z,7.73
2023-02-15T16:58:03.846Z,7.69
2023-02-15T17:00:37.518Z,7.66
2023-02-15T17:03:08.557Z,7.64
2023-02-15T17:05:48.802Z,7.60
2023-02-15T17:08:29.052Z,7.53
2023-02-15T17:11:21.044Z,7.47
2023-02-15T17:14:07.805Z,7.40
2023-02-15T17:16:53.130Z,7.35
2023-02-15T17:19:31.271Z,7.32
2023-02-15T17:22:09.163Z,7.28
2023-02-15T17:24:44.844Z,7.28
2023-02-15T17:27:27.722Z,7.24
2023-02-15T17:30:02.803Z,7.21
2023-02-15T17:32:34.480Z,7.17
2023-02-15T17:35:11.160Z,7.10
2023-02-15T17:37:39.227Z,7.06
2023-02-15T17:40:30.344Z,6.99
2023-02-15T17:42:58.680Z,6.94
2023-02-15T17:45:42.842Z,6.88
2023-02-15T17:48:32.832Z,6.79
2023-02-15T17:51:04.320Z,6.74
2023-02-15T17:53:33.762Z,6.67
2023-02-15T17:56:10.399Z,6.61
2023-02-15T17:58:39.389Z,6.50
2023-02-15T18:01:37.398Z,6.43
2023-02-15T18:04:23.552Z,6.36
2023-02-15T18:07:10.052Z,6.34
2023-02-15T18:09:55.676Z,6.31
2023-02-15T18:12:30.122Z,6.28
2023-02-15T18:14:59.377Z,6.24
2023-02-15T18:17:47.028Z,6.22
2023-02-15T18:20:27.080Z,6.21
2023-02-15T18:22:55.449Z,6.20
2023-02-15T18:25:25.971Z,6.19
2023-02-15T18:27:55.379Z,6.19
2023-02-15T18:30:26.965Z,6.16
2023-02-15T18:32:58.121Z,6.14
2023-02-15T18:35:30.446Z,6.13
2023-02-15T18:38:00.482Z,6.12
2023-02-15T18:40:30.382Z,6.12
2023-02-15T18:42:58.910Z,6.13
2023-02-15T18:45:33.072Z,6.09
2023-02-15T18:48:01.973Z,6.09
2023-02-15T18:50:35.296Z,6.09
2023-02-15T18:53:06.722Z,6.08
2023-02-15T18:55:36.601Z,6.07
2023-02-15T18:58:04.880Z,6.05
2023-02-15T19:00:36.433Z,6.06
2023-02-15T19:03:07.776Z,6.07
2023-02-15T19:05:35.963Z,6.09
2023-02-15T19:08:05.275Z,6.11
2023-02-15T19:10:34.984Z,6.16
2023-02-15T19:13:03.460Z,6.22
2023-02-15T19:15:32.261Z,6.26
2023-02-15T19:18:00.789Z,6.31
2023-02-15T19:20:44.563Z,6.35
2023-02-15T19:23:25.128Z,6.35
2023-02-15T19:25:55.379Z,6.37
2023-02-15T19:28:41.349Z,6.37
2023-02-15T19:31:14.197Z,6.34
2023-02-15T19:33:45.221Z,6.35
2023-02-15T19:36:19.171Z,6.35
2023-02-15T19:38:51.507Z,6.32
2023-02-15T19:41:28.924Z,6.33
2023-02-15T19:43:57.172Z,6.34
2023-02-15T19:46:26.334Z,6.33
2023-02-15T19:48:55.325Z,6.31
2023-02-15T19:51:24.318Z,6.31
2023-02-15T19:53:53.058Z,6.30
2023-02-15T19:56:26.957Z,6.27
2023-02-15T19:58:57.866Z,6.24
2023-02-15T20:01:26.387Z,6.21
2023-02-15T20:03:55.648Z,6.19
2023-02-15T20:06:24.157Z,6.15
2023-02-15T20:09:15.848Z,6.12
2023-02-15T20:11:44.433Z,6.07
2023-02-15T20:14:16.414Z,6.02
2023-02-15T20:16:44.897Z,5.98
2023-02-15T20:19:14.111Z,5.96
2023-02-15T20:21:45.605Z,5.91
2023-02-15T20:24:22.406Z,5.84
2023-02-15T20:26:51.299Z,5.85
2023-02-15T20:29:20.861Z,5.80
2023-02-15T20:31:49.183Z,5.79
2023-02-15T20:34:17.360Z,5.78
2023-02-15T20:36:45.634Z,5.76
2023-02-15T20:39:20.512Z,5.75
2023-02-15T20:41:49.119Z,5.75
2023-02-15T20:44:30.150Z,5.72
2023-02-15T20:47:01.517Z,5.69
2023-02-15T20:49:29.929Z,5.64
2023-02-15T20:51:58.812Z,5.61
2023-02-15T20:54:37.298Z,5.58
2023-02-15T20:57:07.072Z,5.56
2023-02-15T20:59:36.180Z,5.55
2023-02-15T21:02:23.934Z,5.52
2023-02-15T21:04:52.756Z,5.48
2023-02-15T21:07:22.975Z,5.46
2023-02-15T21:09:52.406Z,5.44
2023-02-15T21:12:22.344Z,5.41
2023-02-15T21:14:50.981Z,5.41
2023-02-15T21:17:19.186Z,5.36
2023-02-15T21:19:47.630Z,5.33
2023-02-15T21:22:17.344Z,5.31
2023-02-15T21:24:54.758Z,5.31
2023-02-15T21:27:23.249Z,5.23
2023-02-15T21:29:51.710Z,5.24
2023-02-15T21:32:21.279Z,5.20
2023-02-15T21:34:49.743Z,5.17
2023-02-15T21:37:34.738Z,5.14
2023-02-15T21:40:05.865Z,5.14
2023-02-15T21:42:51.675Z,5.13
2023-02-15T21:45:37.867Z,5.11
2023-02-15T21:48:06.540Z,5.08
2023-02-15T21:50:54.311Z,5.03
2023-02-15T21:53:29.649Z,5.02
2023-02-15T21:56:01.721Z,5.00
2023-02-15T21:58:33.431Z,4.94
2023-02-15T22:01:03.382Z,4.89
2023-02-15T22:03:36.536Z,4.88
2023-02-15T22:06:06.378Z,4.86
2023-02-15T22:08:35.330Z,4.86
2023-02-15T22:11:04.067Z,4.84
2023-02-15T22:13:36.394Z,4.81
2023-02-15T22:16:05.353Z,4.78
2023-02-15T22:18:35.533Z,4.74
2023-02-15T22:21:05.055Z,4.73
2023-02-15T22:23:33.719Z,4.72
2023-02-15T22:26:26.181Z,4.66
2023-02-15T22:28:54.863Z,4.66
2023-02-15T22:31:24.576Z,4.63
2023-02-15T22:33:54.982Z,4.60
2023-02-15T22:36:26.662Z,4.53
2023-02-15T22:38:55.556Z,4.58
2023-02-15T22:41:31.123Z,4.58
2023-02-15T22:44:00.175Z,4.59
2023-02-15T22:46:28.610Z,4.59
2023-02-15T22:48:57.032Z,4.59
2023-02-15T22:51:26.470Z,4.60
2023-02-15T22:53:55.032Z,4.60
2023-02-15T22:56:46.270Z,4.57
2023-02-15T22:59:21.659Z,4.57
2023-02-15T23:01:50.317Z,4.54
2023-02-15T23:04:25.905Z,4.52
2023-02-15T23:06:55.279Z,4.54
2023-02-15T23:09:23.915Z,4.55
2023-02-15T23:11:54.241Z,4.56
2023-02-15T23:14:35.935Z,4.54
2023-02-15T23:17:04.597Z,4.58
2023-02-15T23:19:33.154Z,4.57
2023-02-15T23:22:01.730Z,4.50
2023-02-15T23:24:34.490Z,4.49
2023-02-15T23:27:16.833Z,4.52
2023-02-15T23:29:45.441Z,4.53
2023-02-15T23:32:17.247Z,4.55
2023-02-15T23:34:45.813Z,4.55
2023-02-15T23:37:15.622Z,4.56
2023-02-15T23:40:01.447Z,4.54
2023-02-15T23:42:35.169Z,4.51
2023-02-15T23:45:04.476Z,4.51
2023-02-15T23:47:54.081Z,4.50
2023-02-15T23:50:31.216Z,4.45
2023-02-15T23:53:00.624Z,4.46
2023-02-15T23:55:44.808Z,4.46
2023-02-15T23:58:24.765Z,4.44
